sensor_id;sensor_type;location;lat;lon;timestamp;temperature;humidity
2783;DHT22;1399;47.072;15.452;2023-09-12T00:00:19;19.00;96.70
2783;DHT22;1399;47.072;15.452;2023-09-12T00:02:45;19.00;96.60
2783;DHT22;1399;47.072;15.452;2023-09-12T00:05:11;19.00;96.60
2783;DHT22;1399;47.072;15.452;2023-09-12T00:07:38;19.00;96.60
2783;DHT22;1399;47.072;15.452;2023-09-12T00:10:05;18.90;96.60
2783;DHT22;1399;47.072;15.452;2023-09-12T00:12:30;18.90;96.60
2783;DHT22;1399;47.072;15.452;2023-09-12T00:14:56;18.90;96.60
2783;DHT22;1399;47.072;15.452;2023-09-12T00:17:22;18.90;96.60
2783;DHT22;1399;47.072;15.452;2023-09-12T00:19:48;18.90;96.60
2783;DHT22;1399;47.072;15.452;2023-09-12T00:22:13;18.90;96.60
2783;DHT22;1399;47.072;15.452;2023-09-12T00:24:39;18.80;96.50
2783;DHT22;1399;47.072;15.452;2023-09-12T00:27:05;18.80;96.50
2783;DHT22;1399;47.072;15.452;2023-09-12T00:29:31;18.80;96.90
2783;DHT22;1399;47.072;15.452;2023-09-12T00:31:58;18.80;96.60
2783;DHT22;1399;47.072;15.452;2023-09-12T00:34:23;18.80;96.50
2783;DHT22;1399;47.072;15.452;2023-09-12T00:36:49;18.80;96.50
2783;DHT22;1399;47.072;15.452;2023-09-12T00:39:15;18.80;96.50
2783;DHT22;1399;47.072;15.452;2023-09-12T00:41:41;18.80;96.50
2783;DHT22;1399;47.072;15.452;2023-09-12T00:44:06;18.80;96.50
2783;DHT22;1399;47.072;15.452;2023-09-12T00:46:32;18.70;96.50
2783;DHT22;1399;47.072;15.452;2023-09-12T00:49:00;18.70;96.50
2783;DHT22;1399;47.072;15.452;2023-09-12T00:51:27;18.70;96.50
2783;DHT22;1399;47.072;15.452;2023-09-12T00:53:54;18.80;96.50
2783;DHT22;1399;47.072;15.452;2023-09-12T00:56:21;18.70;96.50
2783;DHT22;1399;47.072;15.452;2023-09-12T00:58:47;18.70;96.50
2783;DHT22;1399;47.072;15.452;2023-09-12T01:01:13;18.70;96.50
2783;DHT22;1399;47.072;15.452;2023-09-12T01:03:39;18.70;96.50
2783;DHT22;1399;47.072;15.452;2023-09-12T01:06:05;18.60;96.40
2783;DHT22;1399;47.072;15.452;2023-09-12T01:08:34;18.60;96.40
2783;DHT22;1399;47.072;15.452;2023-09-12T01:11:00;18.60;96.40
2783;DHT22;1399;47.072;15.452;2023-09-12T01:13:26;18.60;96.40
2783;DHT22;1399;47.072;15.452;2023-09-12T01:15:52;18.60;96.40
2783;DHT22;1399;47.072;15.452;2023-09-12T01:18:18;18.60;96.40
2783;DHT22;1399;47.072;15.452;2023-09-12T01:26:52;18.60;96.40
2783;DHT22;1399;47.072;15.452;2023-09-12T01:29:22;18.50;96.40
2783;DHT22;1399;47.072;15.452;2023-09-12T01:31:51;18.50;96.40
2783;DHT22;1399;47.072;15.452;2023-09-12T01:34:18;18.50;96.40
2783;DHT22;1399;47.072;15.452;2023-09-12T01:36:44;18.50;96.40
2783;DHT22;1399;47.072;15.452;2023-09-12T01:39:11;18.50;96.40
2783;DHT22;1399;47.072;15.452;2023-09-12T01:41:40;18.50;96.40
2783;DHT22;1399;47.072;15.452;2023-09-12T01:44:09;18.50;96.40
2783;DHT22;1399;47.072;15.452;2023-09-12T01:46:38;18.50;96.40
2783;DHT22;1399;47.072;15.452;2023-09-12T01:49:05;18.40;96.30
2783;DHT22;1399;47.072;15.452;2023-09-12T01:51:33;18.40;96.30
2783;DHT22;1399;47.072;15.452;2023-09-12T01:54:00;18.40;96.40
2783;DHT22;1399;47.072;15.452;2023-09-12T01:56:26;18.40;96.30
2783;DHT22;1399;47.072;15.452;2023-09-12T01:58:52;18.40;96.30
2783;DHT22;1399;47.072;15.452;2023-09-12T02:01:18;18.40;96.30
2783;DHT22;1399;47.072;15.452;2023-09-12T02:03:43;18.40;96.40
2783;DHT22;1399;47.072;15.452;2023-09-12T02:06:09;18.40;96.40
2783;DHT22;1399;47.072;15.452;2023-09-12T02:08:35;18.40;96.40
2783;DHT22;1399;47.072;15.452;2023-09-12T02:11:00;18.30;96.30
2783;DHT22;1399;47.072;15.452;2023-09-12T02:13:26;18.30;96.30
2783;DHT22;1399;47.072;15.452;2023-09-12T02:15:59;18.30;96.30
2783;DHT22;1399;47.072;15.452;2023-09-12T02:18:25;18.30;96.30
2783;DHT22;1399;47.072;15.452;2023-09-12T02:20:50;18.30;96.30
2783;DHT22;1399;47.072;15.452;2023-09-12T02:23:16;18.30;96.30
2783;DHT22;1399;47.072;15.452;2023-09-12T02:25:42;18.30;96.30
2783;DHT22;1399;47.072;15.452;2023-09-12T02:28:07;18.30;96.30
2783;DHT22;1399;47.072;15.452;2023-09-12T02:30:33;18.30;96.30
2783;DHT22;1399;47.072;15.452;2023-09-12T02:32:59;18.20;96.30
2783;DHT22;1399;47.072;15.452;2023-09-12T02:35:25;18.20;96.30
2783;DHT22;1399;47.072;15.452;2023-09-12T02:37:53;18.20;96.30
2783;DHT22;1399;47.072;15.452;2023-09-12T02:40:19;18.20;96.30
2783;DHT22;1399;47.072;15.452;2023-09-12T02:42:44;18.20;96.30
2783;DHT22;1399;47.072;15.452;2023-09-12T02:45:10;18.20;96.30
2783;DHT22;1399;47.072;15.452;2023-09-12T02:47:36;18.20;96.30
2783;DHT22;1399;47.072;15.452;2023-09-12T02:50:02;18.20;96.30
2783;DHT22;1399;47.072;15.452;2023-09-12T02:52:28;18.20;96.40
2783;DHT22;1399;47.072;15.452;2023-09-12T02:54:54;18.20;96.40
2783;DHT22;1399;47.072;15.452;2023-09-12T02:57:19;18.10;96.30
2783;DHT22;1399;47.072;15.452;2023-09-12T02:59:45;18.10;96.30
2783;DHT22;1399;47.072;15.452;2023-09-12T03:02:11;18.10;96.30
2783;DHT22;1399;47.072;15.452;2023-09-12T03:04:36;18.10;96.30
2783;DHT22;1399;47.072;15.452;2023-09-12T03:07:02;18.10;96.30
2783;DHT22;1399;47.072;15.452;2023-09-12T03:09:28;18.10;96.30
2783;DHT22;1399;47.072;15.452;2023-09-12T03:11:54;18.10;96.30
2783;DHT22;1399;47.072;15.452;2023-09-12T03:14:19;18.10;96.30
2783;DHT22;1399;47.072;15.452;2023-09-12T03:16:45;18.10;96.30
2783;DHT22;1399;47.072;15.452;2023-09-12T03:19:13;18.00;96.20
2783;DHT22;1399;47.072;15.452;2023-09-12T03:21:39;18.10;96.30
2783;DHT22;1399;47.072;15.452;2023-09-12T03:24:05;18.00;96.20
2783;DHT22;1399;47.072;15.452;2023-09-12T03:26:35;18.00;96.20
2783;DHT22;1399;47.072;15.452;2023-09-12T03:29:05;18.00;96.20
2783;DHT22;1399;47.072;15.452;2023-09-12T03:31:31;18.00;96.20
2783;DHT22;1399;47.072;15.452;2023-09-12T03:33:56;18.00;96.30
2783;DHT22;1399;47.072;15.452;2023-09-12T03:36:22;18.00;96.30
2783;DHT22;1399;47.072;15.452;2023-09-12T03:38:48;18.00;96.20
2783;DHT22;1399;47.072;15.452;2023-09-12T03:41:14;17.90;96.20
2783;DHT22;1399;47.072;15.452;2023-09-12T03:43:39;17.90;96.20
2783;DHT22;1399;47.072;15.452;2023-09-12T03:46:05;17.90;96.20
2783;DHT22;1399;47.072;15.452;2023-09-12T03:48:31;17.90;96.20
2783;DHT22;1399;47.072;15.452;2023-09-12T03:50:57;17.90;96.20
2783;DHT22;1399;47.072;15.452;2023-09-12T03:53:23;17.90;96.20
2783;DHT22;1399;47.072;15.452;2023-09-12T03:55:49;17.90;96.20
2783;DHT22;1399;47.072;15.452;2023-09-12T03:58:14;17.90;96.30
2783;DHT22;1399;47.072;15.452;2023-09-12T04:00:40;17.90;96.30
2783;DHT22;1399;47.072;15.452;2023-09-12T04:03:06;17.80;96.20
2783;DHT22;1399;47.072;15.452;2023-09-12T04:05:31;17.90;96.30
2783;DHT22;1399;47.072;15.452;2023-09-12T04:07:57;17.90;96.30
2783;DHT22;1399;47.072;15.452;2023-09-12T04:10:23;17.80;96.20
2783;DHT22;1399;47.072;15.452;2023-09-12T04:12:49;17.80;96.20
2783;DHT22;1399;47.072;15.452;2023-09-12T04:15:14;17.80;96.30
2783;DHT22;1399;47.072;15.452;2023-09-12T04:17:40;17.80;96.30
2783;DHT22;1399;47.072;15.452;2023-09-12T04:20:06;17.80;96.30
2783;DHT22;1399;47.072;15.452;2023-09-12T04:22:33;17.80;96.30
2783;DHT22;1399;47.072;15.452;2023-09-12T04:24:59;17.80;96.30
2783;DHT22;1399;47.072;15.452;2023-09-12T04:27:24;17.80;96.30
2783;DHT22;1399;47.072;15.452;2023-09-12T04:29:50;17.70;96.30
2783;DHT22;1399;47.072;15.452;2023-09-12T04:32:16;17.80;96.30
2783;DHT22;1399;47.072;15.452;2023-09-12T04:34:49;17.70;96.30
2783;DHT22;1399;47.072;15.452;2023-09-12T04:37:15;17.70;96.30
2783;DHT22;1399;47.072;15.452;2023-09-12T04:39:41;17.70;96.30
2783;DHT22;1399;47.072;15.452;2023-09-12T04:42:07;17.70;96.30
2783;DHT22;1399;47.072;15.452;2023-09-12T04:44:38;17.70;96.30
2783;DHT22;1399;47.072;15.452;2023-09-12T04:47:04;17.70;96.30
2783;DHT22;1399;47.072;15.452;2023-09-12T04:49:30;17.70;96.30
2783;DHT22;1399;47.072;15.452;2023-09-12T04:51:56;17.70;96.30
2783;DHT22;1399;47.072;15.452;2023-09-12T04:54:21;17.70;96.30
2783;DHT22;1399;47.072;15.452;2023-09-12T04:56:47;17.70;96.30
2783;DHT22;1399;47.072;15.452;2023-09-12T04:59:13;17.70;96.30
2783;DHT22;1399;47.072;15.452;2023-09-12T05:01:39;17.70;96.30
2783;DHT22;1399;47.072;15.452;2023-09-12T05:04:04;17.80;96.40
2783;DHT22;1399;47.072;15.452;2023-09-12T05:06:30;17.80;96.30
2783;DHT22;1399;47.072;15.452;2023-09-12T05:08:56;17.80;96.30
2783;DHT22;1399;47.072;15.452;2023-09-12T05:11:23;17.80;96.30
2783;DHT22;1399;47.072;15.452;2023-09-12T05:13:51;17.80;96.20
2783;DHT22;1399;47.072;15.452;2023-09-12T05:16:17;17.80;96.20
2783;DHT22;1399;47.072;15.452;2023-09-12T05:18:43;17.80;96.20
2783;DHT22;1399;47.072;15.452;2023-09-12T05:21:09;17.80;96.20
2783;DHT22;1399;47.072;15.452;2023-09-12T05:23:34;17.80;96.10
2783;DHT22;1399;47.072;15.452;2023-09-12T05:26:00;17.90;96.10
2783;DHT22;1399;47.072;15.452;2023-09-12T05:28:26;17.90;96.10
2783;DHT22;1399;47.072;15.452;2023-09-12T05:30:52;17.90;96.00
2783;DHT22;1399;47.072;15.452;2023-09-12T05:33:18;17.90;96.00
2783;DHT22;1399;47.072;15.452;2023-09-12T05:35:44;18.00;96.00
2783;DHT22;1399;47.072;15.452;2023-09-12T05:38:10;18.00;95.90
2783;DHT22;1399;47.072;15.452;2023-09-12T05:40:36;18.00;95.90
2783;DHT22;1399;47.072;15.452;2023-09-12T05:43:02;18.00;95.90
2783;DHT22;1399;47.072;15.452;2023-09-12T05:45:28;18.10;95.90
2783;DHT22;1399;47.072;15.452;2023-09-12T05:47:56;18.10;95.80
2783;DHT22;1399;47.072;15.452;2023-09-12T05:50:22;18.10;95.80
2783;DHT22;1399;47.072;15.452;2023-09-12T05:52:48;18.20;95.80
2783;DHT22;1399;47.072;15.452;2023-09-12T05:55:14;18.20;95.70
2783;DHT22;1399;47.072;15.452;2023-09-12T05:57:40;18.20;95.70
2783;DHT22;1399;47.072;15.452;2023-09-12T06:00:06;18.30;95.80
2783;DHT22;1399;47.072;15.452;2023-09-12T06:02:36;18.30;95.70
2783;DHT22;1399;47.072;15.452;2023-09-12T06:05:02;18.30;95.60
2783;DHT22;1399;47.072;15.452;2023-09-12T06:07:28;18.40;95.70
2783;DHT22;1399;47.072;15.452;2023-09-12T06:09:54;18.40;95.70
2783;DHT22;1399;47.072;15.452;2023-09-12T06:12:19;18.50;95.70
2783;DHT22;1399;47.072;15.452;2023-09-12T06:14:45;18.70;95.50
2783;DHT22;1399;47.072;15.452;2023-09-12T06:17:11;19.00;95.10
2783;DHT22;1399;47.072;15.452;2023-09-12T06:19:36;19.20;94.60
2783;DHT22;1399;47.072;15.452;2023-09-12T06:22:02;19.40;94.10
2783;DHT22;1399;47.072;15.452;2023-09-12T06:24:28;19.60;93.70
2783;DHT22;1399;47.072;15.452;2023-09-12T06:26:54;19.80;93.50
2783;DHT22;1399;47.072;15.452;2023-09-12T06:29:20;19.90;93.30
2783;DHT22;1399;47.072;15.452;2023-09-12T06:31:45;20.00;93.20
2783;DHT22;1399;47.072;15.452;2023-09-12T06:34:11;20.00;93.10
2783;DHT22;1399;47.072;15.452;2023-09-12T06:36:38;20.00;93.10
2783;DHT22;1399;47.072;15.452;2023-09-12T06:39:04;20.00;93.10
2783;DHT22;1399;47.072;15.452;2023-09-12T06:41:30;20.00;93.00
2783;DHT22;1399;47.072;15.452;2023-09-12T06:43:56;20.00;93.00
2783;DHT22;1399;47.072;15.452;2023-09-12T06:46:24;20.00;93.00
2783;DHT22;1399;47.072;15.452;2023-09-12T06:48:50;20.00;92.90
2783;DHT22;1399;47.072;15.452;2023-09-12T06:51:16;20.00;92.90
2783;DHT22;1399;47.072;15.452;2023-09-12T06:53:42;20.00;92.90
2783;DHT22;1399;47.072;15.452;2023-09-12T06:56:08;20.10;92.80
2783;DHT22;1399;47.072;15.452;2023-09-12T06:58:34;20.00;92.80
2783;DHT22;1399;47.072;15.452;2023-09-12T07:01:04;20.10;92.80
2783;DHT22;1399;47.072;15.452;2023-09-12T07:03:33;20.10;92.80
2783;DHT22;1399;47.072;15.452;2023-09-12T07:06:03;20.10;92.80
2783;DHT22;1399;47.072;15.452;2023-09-12T07:08:30;20.10;92.70
2783;DHT22;1399;47.072;15.452;2023-09-12T07:10:56;20.10;92.70
2783;DHT22;1399;47.072;15.452;2023-09-12T07:13:23;20.20;92.80
2783;DHT22;1399;47.072;15.452;2023-09-12T07:15:52;20.20;92.70
2783;DHT22;1399;47.072;15.452;2023-09-12T07:18:18;20.20;92.70
2783;DHT22;1399;47.072;15.452;2023-09-12T07:20:44;20.20;92.70
2783;DHT22;1399;47.072;15.452;2023-09-12T07:23:11;20.30;92.70
2783;DHT22;1399;47.072;15.452;2023-09-12T07:25:40;20.30;92.70
2783;DHT22;1399;47.072;15.452;2023-09-12T07:28:09;20.30;92.60
2783;DHT22;1399;47.072;15.452;2023-09-12T07:30:35;20.30;92.60
2783;DHT22;1399;47.072;15.452;2023-09-12T07:33:03;20.30;92.50
2783;DHT22;1399;47.072;15.452;2023-09-12T07:35:30;20.40;92.60
2783;DHT22;1399;47.072;15.452;2023-09-12T07:37:56;20.40;92.50
2783;DHT22;1399;47.072;15.452;2023-09-12T07:40:22;20.40;92.50
2783;DHT22;1399;47.072;15.452;2023-09-12T07:42:48;20.40;92.50
2783;DHT22;1399;47.072;15.452;2023-09-12T07:45:13;20.50;92.50
2783;DHT22;1399;47.072;15.452;2023-09-12T07:47:39;20.50;92.40
2783;DHT22;1399;47.072;15.452;2023-09-12T07:50:06;20.50;92.40
2783;DHT22;1399;47.072;15.452;2023-09-12T07:52:35;20.50;92.40
2783;DHT22;1399;47.072;15.452;2023-09-12T07:55:01;20.50;92.30
2783;DHT22;1399;47.072;15.452;2023-09-12T07:57:28;20.60;92.30
2783;DHT22;1399;47.072;15.452;2023-09-12T07:59:55;20.60;92.30
2783;DHT22;1399;47.072;15.452;2023-09-12T08:02:21;20.60;92.20
2783;DHT22;1399;47.072;15.452;2023-09-12T08:04:49;20.60;92.20
2783;DHT22;1399;47.072;15.452;2023-09-12T08:07:16;20.70;92.20
2783;DHT22;1399;47.072;15.452;2023-09-12T08:09:53;20.70;92.10
2783;DHT22;1399;47.072;15.452;2023-09-12T08:12:21;20.70;92.10
2783;DHT22;1399;47.072;15.452;2023-09-12T08:14:47;20.70;92.00
2783;DHT22;1399;47.072;15.452;2023-09-12T08:17:13;20.80;92.00
2783;DHT22;1399;47.072;15.452;2023-09-12T08:19:39;20.80;92.00
2783;DHT22;1399;47.072;15.452;2023-09-12T08:22:06;20.80;91.90
2783;DHT22;1399;47.072;15.452;2023-09-12T08:24:33;20.80;91.90
2783;DHT22;1399;47.072;15.452;2023-09-12T08:26:59;20.90;91.90
2783;DHT22;1399;47.072;15.452;2023-09-12T08:29:25;20.90;91.80
2783;DHT22;1399;47.072;15.452;2023-09-12T08:31:51;20.90;91.80
2783;DHT22;1399;47.072;15.452;2023-09-12T08:34:20;21.00;91.80
2783;DHT22;1399;47.072;15.452;2023-09-12T08:36:45;21.00;91.70
2783;DHT22;1399;47.072;15.452;2023-09-12T08:39:14;21.00;91.60
2783;DHT22;1399;47.072;15.452;2023-09-12T08:41:42;21.00;91.60
2783;DHT22;1399;47.072;15.452;2023-09-12T08:44:09;21.00;91.60
2783;DHT22;1399;47.072;15.452;2023-09-12T08:46:35;21.10;91.60
2783;DHT22;1399;47.072;15.452;2023-09-12T08:49:04;21.10;91.60
2783;DHT22;1399;47.072;15.452;2023-09-12T08:51:30;21.10;91.50
2783;DHT22;1399;47.072;15.452;2023-09-12T08:53:57;21.10;91.50
2783;DHT22;1399;47.072;15.452;2023-09-12T08:56:23;21.10;91.50
2783;DHT22;1399;47.072;15.452;2023-09-12T08:58:51;21.10;91.50
2783;DHT22;1399;47.072;15.452;2023-09-12T09:01:18;21.20;91.50
2783;DHT22;1399;47.072;15.452;2023-09-12T09:03:44;21.20;91.50
2783;DHT22;1399;47.072;15.452;2023-09-12T09:06:12;21.20;91.40
2783;DHT22;1399;47.072;15.452;2023-09-12T09:08:39;21.20;91.40
2783;DHT22;1399;47.072;15.452;2023-09-12T09:11:05;21.30;91.50
2783;DHT22;1399;47.072;15.452;2023-09-12T09:13:32;21.30;91.40
2783;DHT22;1399;47.072;15.452;2023-09-12T09:16:15;21.30;91.40
2783;DHT22;1399;47.072;15.452;2023-09-12T09:21:18;21.30;91.30
2783;DHT22;1399;47.072;15.452;2023-09-12T09:23:50;21.40;91.30
2783;DHT22;1399;47.072;15.452;2023-09-12T09:26:16;21.40;91.30
2783;DHT22;1399;47.072;15.452;2023-09-12T09:28:42;21.40;91.30
2783;DHT22;1399;47.072;15.452;2023-09-12T09:31:12;21.40;91.30
2783;DHT22;1399;47.072;15.452;2023-09-12T09:33:42;21.50;91.40
2783;DHT22;1399;47.072;15.452;2023-09-12T09:36:17;21.50;91.30
2783;DHT22;1399;47.072;15.452;2023-09-12T09:38:43;21.50;91.30
2783;DHT22;1399;47.072;15.452;2023-09-12T09:41:09;21.50;91.30
2783;DHT22;1399;47.072;15.452;2023-09-12T09:43:35;21.50;91.20
2783;DHT22;1399;47.072;15.452;2023-09-12T09:46:02;21.60;91.40
2783;DHT22;1399;47.072;15.452;2023-09-12T09:48:28;21.60;91.20
2783;DHT22;1399;47.072;15.452;2023-09-12T09:51:03;21.60;91.20
2783;DHT22;1399;47.072;15.452;2023-09-12T09:53:29;21.60;91.20
2783;DHT22;1399;47.072;15.452;2023-09-12T09:56:11;21.60;91.20
2783;DHT22;1399;47.072;15.452;2023-09-12T09:58:57;21.70;91.20
2783;DHT22;1399;47.072;15.452;2023-09-12T10:01:23;21.70;91.20
2783;DHT22;1399;47.072;15.452;2023-09-12T10:03:53;21.70;91.20
2783;DHT22;1399;47.072;15.452;2023-09-12T10:06:23;21.70;91.20
2783;DHT22;1399;47.072;15.452;2023-09-12T10:08:53;21.80;91.20
2783;DHT22;1399;47.072;15.452;2023-09-12T10:11:23;21.80;91.20
2783;DHT22;1399;47.072;15.452;2023-09-12T10:13:56;21.80;91.20
2783;DHT22;1399;47.072;15.452;2023-09-12T10:16:47;21.80;91.20
2783;DHT22;1399;47.072;15.452;2023-09-12T10:19:23;21.80;91.20
2783;DHT22;1399;47.072;15.452;2023-09-12T10:22:19;21.90;91.20
2783;DHT22;1399;47.072;15.452;2023-09-12T10:24:46;21.90;91.20
2783;DHT22;1399;47.072;15.452;2023-09-12T10:27:13;21.90;91.20
2783;DHT22;1399;47.072;15.452;2023-09-12T10:29:39;21.90;91.10
2783;DHT22;1399;47.072;15.452;2023-09-12T10:32:05;21.90;91.10
2783;DHT22;1399;47.072;15.452;2023-09-12T10:34:32;22.00;91.20
2783;DHT22;1399;47.072;15.452;2023-09-12T10:36:59;22.00;91.20
2783;DHT22;1399;47.072;15.452;2023-09-12T10:39:27;22.00;91.10
2783;DHT22;1399;47.072;15.452;2023-09-12T10:41:54;22.00;91.20
2783;DHT22;1399;47.072;15.452;2023-09-12T10:44:21;22.00;91.20
2783;DHT22;1399;47.072;15.452;2023-09-12T10:46:47;22.10;91.30
2783;DHT22;1399;47.072;15.452;2023-09-12T10:49:15;22.00;91.20
2783;DHT22;1399;47.072;15.452;2023-09-12T10:51:46;22.10;91.20
2783;DHT22;1399;47.072;15.452;2023-09-12T10:54:24;22.10;91.20
2783;DHT22;1399;47.072;15.452;2023-09-12T10:59:31;22.10;91.20
2783;DHT22;1399;47.072;15.452;2023-09-12T11:02:31;22.10;91.10
2783;DHT22;1399;47.072;15.452;2023-09-12T11:05:05;22.20;91.20
2783;DHT22;1399;47.072;15.452;2023-09-12T11:12:42;22.20;91.10
2783;DHT22;1399;47.072;15.452;2023-09-12T11:15:09;22.20;91.10
2783;DHT22;1399;47.072;15.452;2023-09-12T11:17:40;22.30;91.10
2783;DHT22;1399;47.072;15.452;2023-09-12T11:20:07;22.30;91.10
2783;DHT22;1399;47.072;15.452;2023-09-12T11:22:43;22.30;91.10
2783;DHT22;1399;47.072;15.452;2023-09-12T11:28:01;22.30;91.00
2783;DHT22;1399;47.072;15.452;2023-09-12T11:30:29;22.30;91.00
2783;DHT22;1399;47.072;15.452;2023-09-12T11:32:57;22.30;91.00
2783;DHT22;1399;47.072;15.452;2023-09-12T11:35:26;22.30;91.00
2783;DHT22;1399;47.072;15.452;2023-09-12T11:37:59;22.40;91.10
2783;DHT22;1399;47.072;15.452;2023-09-12T11:40:47;22.40;91.00
2783;DHT22;1399;47.072;15.452;2023-09-12T11:43:26;22.40;91.00
2783;DHT22;1399;47.072;15.452;2023-09-12T11:45:54;22.40;91.00
2783;DHT22;1399;47.072;15.452;2023-09-12T11:48:20;22.40;90.90
2783;DHT22;1399;47.072;15.452;2023-09-12T11:50:54;22.40;90.90
2783;DHT22;1399;47.072;15.452;2023-09-12T11:53:24;22.40;90.90
2783;DHT22;1399;47.072;15.452;2023-09-12T11:55:53;22.40;90.90
2783;DHT22;1399;47.072;15.452;2023-09-12T11:58:20;22.40;90.90
2783;DHT22;1399;47.072;15.452;2023-09-12T12:00:51;22.40;90.90
2783;DHT22;1399;47.072;15.452;2023-09-12T12:03:24;22.40;90.90
2783;DHT22;1399;47.072;15.452;2023-09-12T12:05:50;22.40;90.90
2783;DHT22;1399;47.072;15.452;2023-09-12T12:08:18;22.50;90.90
2783;DHT22;1399;47.072;15.452;2023-09-12T12:10:44;22.50;90.80
2783;DHT22;1399;47.072;15.452;2023-09-12T12:13:18;22.50;90.70
2783;DHT22;1399;47.072;15.452;2023-09-12T12:15:44;22.50;90.70
2783;DHT22;1399;47.072;15.452;2023-09-12T12:18:14;22.50;90.60
2783;DHT22;1399;47.072;15.452;2023-09-12T12:20:40;22.50;90.60
2783;DHT22;1399;47.072;15.452;2023-09-12T12:23:05;22.60;90.70
2783;DHT22;1399;47.072;15.452;2023-09-12T12:25:35;22.60;90.70
2783;DHT22;1399;47.072;15.452;2023-09-12T12:28:02;22.60;90.70
2783;DHT22;1399;47.072;15.452;2023-09-12T12:30:33;22.60;91.10
2783;DHT22;1399;47.072;15.452;2023-09-12T12:33:01;22.60;90.60
2783;DHT22;1399;47.072;15.452;2023-09-12T12:35:28;22.60;90.50
2783;DHT22;1399;47.072;15.452;2023-09-12T12:37:55;22.60;90.50
2783;DHT22;1399;47.072;15.452;2023-09-12T12:40:24;22.60;90.40
2783;DHT22;1399;47.072;15.452;2023-09-12T12:42:50;22.60;90.40
2783;DHT22;1399;47.072;15.452;2023-09-12T12:45:21;22.60;90.40
2783;DHT22;1399;47.072;15.452;2023-09-12T12:47:59;22.60;90.30
2783;DHT22;1399;47.072;15.452;2023-09-12T12:50:25;22.70;90.30
2783;DHT22;1399;47.072;15.452;2023-09-12T12:52:51;22.70;90.30
2783;DHT22;1399;47.072;15.452;2023-09-12T12:55:17;22.70;90.20
2783;DHT22;1399;47.072;15.452;2023-09-12T12:57:44;22.70;90.20
2783;DHT22;1399;47.072;15.452;2023-09-12T13:00:15;22.70;90.20
2783;DHT22;1399;47.072;15.452;2023-09-12T13:02:42;22.70;90.10
2783;DHT22;1399;47.072;15.452;2023-09-12T13:05:27;22.70;90.10
2783;DHT22;1399;47.072;15.452;2023-09-12T13:07:53;22.70;90.10
2783;DHT22;1399;47.072;15.452;2023-09-12T13:10:20;22.70;90.00
2783;DHT22;1399;47.072;15.452;2023-09-12T13:12:47;22.70;90.00
2783;DHT22;1399;47.072;15.452;2023-09-12T13:15:13;22.70;89.90
2783;DHT22;1399;47.072;15.452;2023-09-12T13:17:40;22.70;89.80
2783;DHT22;1399;47.072;15.452;2023-09-12T13:20:08;22.80;90.10
2783;DHT22;1399;47.072;15.452;2023-09-12T13:22:34;22.70;89.70
2783;DHT22;1399;47.072;15.452;2023-09-12T13:25:00;22.80;89.80
2783;DHT22;1399;47.072;15.452;2023-09-12T13:27:26;22.80;89.80
2783;DHT22;1399;47.072;15.452;2023-09-12T13:29:52;22.80;89.90
2783;DHT22;1399;47.072;15.452;2023-09-12T13:32:18;22.80;89.80
2783;DHT22;1399;47.072;15.452;2023-09-12T13:34:44;22.80;89.70
2783;DHT22;1399;47.072;15.452;2023-09-12T13:37:10;22.80;89.80
2783;DHT22;1399;47.072;15.452;2023-09-12T13:39:36;22.80;89.70
2783;DHT22;1399;47.072;15.452;2023-09-12T13:42:02;22.80;89.60
2783;DHT22;1399;47.072;15.452;2023-09-12T13:44:30;22.80;89.50
2783;DHT22;1399;47.072;15.452;2023-09-12T13:46:55;22.80;89.40
2783;DHT22;1399;47.072;15.452;2023-09-12T13:49:21;22.80;89.30
2783;DHT22;1399;47.072;15.452;2023-09-12T13:51:47;22.80;89.20
2783;DHT22;1399;47.072;15.452;2023-09-12T13:54:13;22.80;89.00
2783;DHT22;1399;47.072;15.452;2023-09-12T13:56:41;22.90;88.90
2783;DHT22;1399;47.072;15.452;2023-09-12T13:59:07;22.90;88.80
2783;DHT22;1399;47.072;15.452;2023-09-12T14:01:33;22.90;88.90
2783;DHT22;1399;47.072;15.452;2023-09-12T14:03:59;22.90;89.90
2783;DHT22;1399;47.072;15.452;2023-09-12T14:06:25;22.90;89.00
2783;DHT22;1399;47.072;15.452;2023-09-12T14:08:52;22.90;88.80
2783;DHT22;1399;47.072;15.452;2023-09-12T14:11:18;22.90;88.60
2783;DHT22;1399;47.072;15.452;2023-09-12T14:13:44;22.90;88.50
2783;DHT22;1399;47.072;15.452;2023-09-12T14:16:10;22.90;88.50
2783;DHT22;1399;47.072;15.452;2023-09-12T14:18:36;22.90;88.50
2783;DHT22;1399;47.072;15.452;2023-09-12T14:21:03;22.90;88.60
2783;DHT22;1399;47.072;15.452;2023-09-12T14:23:29;22.90;88.40
2783;DHT22;1399;47.072;15.452;2023-09-12T14:25:55;22.90;88.50
2783;DHT22;1399;47.072;15.452;2023-09-12T14:28:22;22.90;88.40
2783;DHT22;1399;47.072;15.452;2023-09-12T14:30:48;22.90;88.40
2783;DHT22;1399;47.072;15.452;2023-09-12T14:33:16;22.90;88.30
2783;DHT22;1399;47.072;15.452;2023-09-12T14:35:44;22.90;88.20
2783;DHT22;1399;47.072;15.452;2023-09-12T14:38:12;22.90;88.20
2783;DHT22;1399;47.072;15.452;2023-09-12T14:40:38;22.90;88.30
2783;DHT22;1399;47.072;15.452;2023-09-12T14:43:05;22.90;88.30
2783;DHT22;1399;47.072;15.452;2023-09-12T14:45:33;22.90;88.30
2783;DHT22;1399;47.072;15.452;2023-09-12T14:47:59;22.90;88.30
2783;DHT22;1399;47.072;15.452;2023-09-12T14:50:25;22.90;88.40
2783;DHT22;1399;47.072;15.452;2023-09-12T14:52:55;22.90;88.30
2783;DHT22;1399;47.072;15.452;2023-09-12T14:55:22;22.90;88.30
2783;DHT22;1399;47.072;15.452;2023-09-12T14:57:48;22.90;88.40
2783;DHT22;1399;47.072;15.452;2023-09-12T15:00:14;22.90;88.40
2783;DHT22;1399;47.072;15.452;2023-09-12T15:02:41;22.80;88.30
2783;DHT22;1399;47.072;15.452;2023-09-12T15:05:08;22.80;88.30
2783;DHT22;1399;47.072;15.452;2023-09-12T15:07:34;22.80;88.30
2783;DHT22;1399;47.072;15.452;2023-09-12T15:10:03;22.80;88.30
2783;DHT22;1399;47.072;15.452;2023-09-12T15:12:29;22.80;88.30
2783;DHT22;1399;47.072;15.452;2023-09-12T15:14:55;22.80;88.30
2783;DHT22;1399;47.072;15.452;2023-09-12T15:17:21;22.80;88.40
2783;DHT22;1399;47.072;15.452;2023-09-12T15:19:47;22.70;88.30
2783;DHT22;1399;47.072;15.452;2023-09-12T15:22:13;22.70;88.40
2783;DHT22;1399;47.072;15.452;2023-09-12T15:24:40;22.70;88.30
2783;DHT22;1399;47.072;15.452;2023-09-12T15:27:06;22.70;88.40
2783;DHT22;1399;47.072;15.452;2023-09-12T15:29:32;22.70;88.50
2783;DHT22;1399;47.072;15.452;2023-09-12T15:31:59;22.70;88.50
2783;DHT22;1399;47.072;15.452;2023-09-12T15:34:26;22.70;88.50
2783;DHT22;1399;47.072;15.452;2023-09-12T15:37:09;22.70;88.60
2783;DHT22;1399;47.072;15.452;2023-09-12T15:39:36;22.70;88.60
2783;DHT22;1399;47.072;15.452;2023-09-12T15:42:02;22.70;88.70
2783;DHT22;1399;47.072;15.452;2023-09-12T15:44:28;22.70;88.70
2783;DHT22;1399;47.072;15.452;2023-09-12T15:46:54;22.70;88.80
2783;DHT22;1399;47.072;15.452;2023-09-12T15:49:23;22.70;88.80
2783;DHT22;1399;47.072;15.452;2023-09-12T15:51:49;22.70;88.80
2783;DHT22;1399;47.072;15.452;2023-09-12T15:54:15;22.70;88.80
2783;DHT22;1399;47.072;15.452;2023-09-12T15:56:41;22.70;88.80
2783;DHT22;1399;47.072;15.452;2023-09-12T15:59:07;22.70;88.80
2783;DHT22;1399;47.072;15.452;2023-09-12T16:01:33;22.60;88.70
2783;DHT22;1399;47.072;15.452;2023-09-12T16:03:59;22.60;88.70